sensor_id;sensor_type;location;lat;lon;timestamp;pressure;altitude;pressure_sealevel;temperature;humidity
15444;BME280;7822;48.146;11.576;2022-12-11T00:00:55;94566.91;;;2.38;70.34
15444;BME280;7822;48.146;11.576;2022-12-11T00:03:23;94560.59;;;2.30;70.79
15444;BME280;7822;48.146;11.576;2022-12-11T00:06:13;94563.97;;;2.30;71.35
15444;BME280;7822;48.146;11.576;2022-12-11T00:08:46;94566.97;;;2.22;70.42
15444;BME280;7822;48.146;11.576;2022-12-11T00:11:29;94572.84;;;2.24;70.54
15444;BME280;7822;48.146;11.576;2022-12-11T00:14:04;94574.53;;;2.10;70.60
15444;BME280;7822;48.146;11.576;2022-12-11T00:16:32;94566.22;;;2.06;71.50
15444;BME280;7822;48.146;11.576;2022-12-11T00:19:36;94566.81;;;2.11;71.41
15444;BME280;7822;48.146;11.576;2022-12-11T00:22:08;94566.81;;;2.25;71.37
15444;BME280;7822;48.146;11.576;2022-12-11T00:25:08;94570.09;;;2.28;70.03
15444;BME280;7822;48.146;11.576;2022-12-11T00:27:36;94575.31;;;2.26;69.73
15444;BME280;7822;48.146;11.576;2022-12-11T00:30:05;94566.53;;;2.30;70.11
15444;BME280;7822;48.146;11.576;2022-12-11T00:32:33;94570.91;;;2.28;69.78
15444;BME280;7822;48.146;11.576;2022-12-11T00:35:03;94568.25;;;2.30;70.03
15444;BME280;7822;48.146;11.576;2022-12-11T00:37:32;94565.91;;;2.27;70.13
15444;BME280;7822;48.146;11.576;2022-12-11T00:40:00;94566.63;;;2.29;69.60
15444;BME280;7822;48.146;11.576;2022-12-11T00:42:28;94575.94;;;2.15;69.59
15444;BME280;7822;48.146;11.576;2022-12-11T00:44:56;94570.09;;;2.13;69.85
15444;BME280;7822;48.146;11.576;2022-12-11T00:47:23;94577.38;;;2.05;70.01
15444;BME280;7822;48.146;11.576;2022-12-11T00:49:51;94571.34;;;2.06;70.39
15444;BME280;7822;48.146;11.576;2022-12-11T00:52:19;94577.97;;;1.95;70.40
15444;BME280;7822;48.146;11.576;2022-12-11T00:54:48;94574.47;;;1.82;70.63
15444;BME280;7822;48.146;11.576;2022-12-11T00:57:15;94567.84;;;1.93;70.38
15444;BME280;7822;48.146;11.576;2022-12-11T00:59:43;94574.84;;;1.90;70.46
15444;BME280;7822;48.146;11.576;2022-12-11T01:02:11;94562.44;;;1.84;70.10
15444;BME280;7822;48.146;11.576;2022-12-11T01:04:38;94572.56;;;1.85;70.90
15444;BME280;7822;48.146;11.576;2022-12-11T01:07:06;94586.84;;;1.89;69.57
15444;BME280;7822;48.146;11.576;2022-12-11T01:09:33;94585.09;;;1.90;69.74
15444;BME280;7822;48.146;11.576;2022-12-11T01:12:20;94584.19;;;1.91;69.34
15444;BME280;7822;48.146;11.576;2022-12-11T01:14:48;94593.22;;;1.82;69.61
15444;BME280;7822;48.146;11.576;2022-12-11T01:17:16;94592.22;;;1.85;69.78
15444;BME280;7822;48.146;11.576;2022-12-11T01:19:43;94595.19;;;1.77;70.45
15444;BME280;7822;48.146;11.576;2022-12-11T01:22:11;94592.84;;;1.88;69.66
15444;BME280;7822;48.146;11.576;2022-12-11T01:24:39;94603.50;;;1.81;69.41
15444;BME280;7822;48.146;11.576;2022-12-11T01:27:06;94594.94;;;1.82;70.44
15444;BME280;7822;48.146;11.576;2022-12-11T01:29:35;94603.44;;;1.82;69.66
15444;BME280;7822;48.146;11.576;2022-12-11T01:32:03;94606.00;;;1.82;70.25
15444;BME280;7822;48.146;11.576;2022-12-11T01:34:32;94610.19;;;1.83;69.91
15444;BME280;7822;48.146;11.576;2022-12-11T01:36:59;94609.63;;;1.78;69.16
15444;BME280;7822;48.146;11.576;2022-12-11T01:39:27;94615.56;;;1.63;70.04
15444;BME280;7822;48.146;11.576;2022-12-11T01:41:55;94627.84;;;1.72;70.08
15444;BME280;7822;48.146;11.576;2022-12-11T01:47:35;94622.94;;;1.69;70.53
15444;BME280;7822;48.146;11.576;2022-12-11T01:50:03;94617.22;;;1.80;70.36
15444;BME280;7822;48.146;11.576;2022-12-11T01:52:30;94617.84;;;1.83;70.19
15444;BME280;7822;48.146;11.576;2022-12-11T01:54:58;94617.28;;;1.94;70.16
15444;BME280;7822;48.146;11.576;2022-12-11T01:57:26;94612.97;;;1.94;69.92
15444;BME280;7822;48.146;11.576;2022-12-11T02:00:04;94616.75;;;1.87;70.24
15444;BME280;7822;48.146;11.576;2022-12-11T02:05:59;94617.66;;;2.02;68.95
15444;BME280;7822;48.146;11.576;2022-12-11T02:08:28;94615.34;;;1.97;69.19
15444;BME280;7822;48.146;11.576;2022-12-11T02:11:03;94617.91;;;1.97;69.55
15444;BME280;7822;48.146;11.576;2022-12-11T02:13:37;94608.31;;;2.01;69.32
15444;BME280;7822;48.146;11.576;2022-12-11T02:16:12;94607.41;;;2.02;69.18
15444;BME280;7822;48.146;11.576;2022-12-11T02:18:47;94596.53;;;1.98;69.15
15444;BME280;7822;48.146;11.576;2022-12-11T02:21:24;94600.63;;;1.87;69.80
15444;BME280;7822;48.146;11.576;2022-12-11T02:24:06;94600.38;;;1.91;69.57
15444;BME280;7822;48.146;11.576;2022-12-11T02:26:54;94599.31;;;1.80;69.04
15444;BME280;7822;48.146;11.576;2022-12-11T02:29:32;94596.88;;;1.92;69.62
15444;BME280;7822;48.146;11.576;2022-12-11T02:32:03;94601.25;;;1.90;69.45
15444;BME280;7822;48.146;11.576;2022-12-11T02:34:39;94602.81;;;1.93;69.32
15444;BME280;7822;48.146;11.576;2022-12-11T02:37:10;94595.25;;;1.91;69.35
15444;BME280;7822;48.146;11.576;2022-12-11T02:39:40;94595.91;;;1.65;69.17
15444;BME280;7822;48.146;11.576;2022-12-11T02:42:10;94598.00;;;1.73;69.59
15444;BME280;7822;48.146;11.576;2022-12-11T02:44:42;94593.88;;;1.70;70.01
15444;BME280;7822;48.146;11.576;2022-12-11T02:47:13;94592.63;;;1.77;70.21
15444;BME280;7822;48.146;11.576;2022-12-11T02:49:46;94598.38;;;1.81;69.85
15444;BME280;7822;48.146;11.576;2022-12-11T02:52:19;94605.69;;;1.73;70.07
15444;BME280;7822;48.146;11.576;2022-12-11T02:54:51;94612.19;;;1.78;70.54
15444;BME280;7822;48.146;11.576;2022-12-11T02:57:23;94602.34;;;1.86;69.87
15444;BME280;7822;48.146;11.576;2022-12-11T02:59:55;94607.09;;;1.92;69.21
15444;BME280;7822;48.146;11.576;2022-12-11T03:02:23;94611.66;;;1.87;69.17
15444;BME280;7822;48.146;11.576;2022-12-11T03:04:51;94605.63;;;1.88;69.48
15444;BME280;7822;48.146;11.576;2022-12-11T03:07:22;94609.44;;;1.81;69.79
15444;BME280;7822;48.146;11.576;2022-12-11T03:09:51;94615.28;;;1.83;69.10
15444;BME280;7822;48.146;11.576;2022-12-11T03:12:20;94610.94;;;1.70;70.03
15444;BME280;7822;48.146;11.576;2022-12-11T03:14:50;94614.56;;;1.81;69.35
15444;BME280;7822;48.146;11.576;2022-12-11T03:17:21;94616.94;;;1.84;68.75
15444;BME280;7822;48.146;11.576;2022-12-11T03:19:54;94619.44;;;1.70;69.25
15444;BME280;7822;48.146;11.576;2022-12-11T03:22:29;94608.97;;;1.75;68.37
15444;BME280;7822;48.146;11.576;2022-12-11T03:25:02;94617.56;;;1.74;67.97
15444;BME280;7822;48.146;11.576;2022-12-11T03:27:35;94624.78;;;1.81;68.16
15444;BME280;7822;48.146;11.576;2022-12-11T03:30:07;94627.94;;;1.71;68.63
15444;BME280;7822;48.146;11.576;2022-12-11T03:32:42;94630.34;;;1.58;69.00
15444;BME280;7822;48.146;11.576;2022-12-11T03:35:16;94631.91;;;1.76;68.93
15444;BME280;7822;48.146;11.576;2022-12-11T03:37:47;94625.00;;;1.92;68.03
15444;BME280;7822;48.146;11.576;2022-12-11T03:40:18;94624.09;;;1.93;68.29
15444;BME280;7822;48.146;11.576;2022-12-11T03:42:48;94633.59;;;1.91;68.44
15444;BME280;7822;48.146;11.576;2022-12-11T03:45:18;94634.75;;;1.86;68.57
15444;BME280;7822;48.146;11.576;2022-12-11T03:47:48;94630.97;;;1.77;69.13
15444;BME280;7822;48.146;11.576;2022-12-11T03:50:18;94629.03;;;1.96;68.02
15444;BME280;7822;48.146;11.576;2022-12-11T03:52:48;94633.25;;;1.97;68.25
15444;BME280;7822;48.146;11.576;2022-12-11T03:55:18;94628.16;;;1.82;68.34
15444;BME280;7822;48.146;11.576;2022-12-11T03:57:47;94634.28;;;1.79;67.85
15444;BME280;7822;48.146;11.576;2022-12-11T04:00:18;94632.09;;;1.87;68.42
15444;BME280;7822;48.146;11.576;2022-12-11T04:02:47;94633.13;;;1.85;68.56
15444;BME280;7822;48.146;11.576;2022-12-11T04:05:40;94631.69;;;1.95;67.37
15444;BME280;7822;48.146;11.576;2022-12-11T04:08:08;94629.72;;;1.84;67.43
15444;BME280;7822;48.146;11.576;2022-12-11T04:10:36;94635.72;;;1.69;67.08
15444;BME280;7822;48.146;11.576;2022-12-11T04:13:04;94624.75;;;1.67;67.80
15444;BME280;7822;48.146;11.576;2022-12-11T04:15:32;94625.66;;;1.50;67.83
15444;BME280;7822;48.146;11.576;2022-12-11T04:18:00;94617.06;;;1.67;67.58
15444;BME280;7822;48.146;11.576;2022-12-11T04:20:45;94618.78;;;1.82;66.53
15444;BME280;7822;48.146;11.576;2022-12-11T04:23:30;94625.78;;;1.79;67.74
15444;BME280;7822;48.146;11.576;2022-12-11T04:26:17;94630.41;;;1.72;66.90
15444;BME280;7822;48.146;11.576;2022-12-11T04:28:47;94636.22;;;1.60;67.21
15444;BME280;7822;48.146;11.576;2022-12-11T04:31:16;94622.66;;;1.74;67.30
15444;BME280;7822;48.146;11.576;2022-12-11T04:33:46;94626.19;;;1.87;66.17
15444;BME280;7822;48.146;11.576;2022-12-11T04:36:14;94621.44;;;1.65;66.84
15444;BME280;7822;48.146;11.576;2022-12-11T04:38:42;94624.41;;;1.73;66.21
15444;BME280;7822;48.146;11.576;2022-12-11T04:41:11;94618.91;;;1.65;66.21
15444;BME280;7822;48.146;11.576;2022-12-11T04:43:39;94625.06;;;1.61;66.43
15444;BME280;7822;48.146;11.576;2022-12-11T04:46:08;94617.97;;;1.66;66.48
15444;BME280;7822;48.146;11.576;2022-12-11T04:48:37;94621.34;;;1.67;65.74
15444;BME280;7822;48.146;11.576;2022-12-11T04:51:07;94618.72;;;1.68;66.38
15444;BME280;7822;48.146;11.576;2022-12-11T04:53:35;94626.63;;;1.64;65.64
15444;BME280;7822;48.146;11.576;2022-12-11T04:56:04;94621.44;;;1.65;65.37
15444;BME280;7822;48.146;11.576;2022-12-11T04:58:32;94627.84;;;1.72;65.11
15444;BME280;7822;48.146;11.576;2022-12-11T05:01:06;94623.16;;;1.80;64.25
15444;BME280;7822;48.146;11.576;2022-12-11T05:03:34;94607.97;;;1.77;64.41
15444;BME280;7822;48.146;11.576;2022-12-11T05:06:02;94612.34;;;1.75;62.39
15444;BME280;7822;48.146;11.576;2022-12-11T05:08:33;94619.50;;;1.84;63.04
15444;BME280;7822;48.146;11.576;2022-12-11T05:11:04;94614.03;;;1.90;62.24
15444;BME280;7822;48.146;11.576;2022-12-11T05:13:32;94609.09;;;1.87;62.14
15444;BME280;7822;48.146;11.576;2022-12-11T05:16:02;94609.59;;;1.94;60.47
15444;BME280;7822;48.146;11.576;2022-12-11T05:18:30;94607.31;;;1.89;61.75
15444;BME280;7822;48.146;11.576;2022-12-11T05:20:59;94608.44;;;1.84;59.86
15444;BME280;7822;48.146;11.576;2022-12-11T05:23:28;94606.19;;;1.64;60.09
15444;BME280;7822;48.146;11.576;2022-12-11T05:25:58;94600.44;;;1.60;59.78
15444;BME280;7822;48.146;11.576;2022-12-11T05:28:30;94605.69;;;1.57;60.46
15444;BME280;7822;48.146;11.576;2022-12-11T05:30:59;94609.66;;;1.63;60.91
15444;BME280;7822;48.146;11.576;2022-12-11T05:33:28;94604.31;;;1.52;60.74
15444;BME280;7822;48.146;11.576;2022-12-11T05:35:56;94606.44;;;1.59;60.53
15444;BME280;7822;48.146;11.576;2022-12-11T05:38:24;94614.03;;;1.61;59.52
15444;BME280;7822;48.146;11.576;2022-12-11T05:40:56;94607.34;;;1.58;60.13
15444;BME280;7822;48.146;11.576;2022-12-11T05:43:26;94612.88;;;1.50;60.43
15444;BME280;7822;48.146;11.576;2022-12-11T05:45:55;94611.41;;;1.46;61.09
15444;BME280;7822;48.146;11.576;2022-12-11T05:48:23;94613.31;;;1.43;61.95
15444;BME280;7822;48.146;11.576;2022-12-11T05:50:57;94609.97;;;1.57;60.96
15444;BME280;7822;48.146;11.576;2022-12-11T05:53:25;94602.97;;;1.76;60.14
15444;BME280;7822;48.146;11.576;2022-12-11T05:55:53;94613.19;;;1.76;59.56
15444;BME280;7822;48.146;11.576;2022-12-11T05:58:22;94611.63;;;1.73;60.58
15444;BME280;7822;48.146;11.576;2022-12-11T06:00:50;94617.22;;;1.80;58.76
15444;BME280;7822;48.146;11.576;2022-12-11T06:03:18;94612.00;;;1.81;58.75
15444;BME280;7822;48.146;11.576;2022-12-11T06:05:45;94611.47;;;1.90;59.46
15444;BME280;7822;48.146;11.576;2022-12-11T06:08:13;94606.16;;;1.79;59.43
15444;BME280;7822;48.146;11.576;2022-12-11T06:10:44;94604.59;;;1.77;60.07
15444;BME280;7822;48.146;11.576;2022-12-11T06:13:12;94597.38;;;1.69;60.21
15444;BME280;7822;48.146;11.576;2022-12-11T06:15:41;94600.81;;;1.68;60.15
15444;BME280;7822;48.146;11.576;2022-12-11T06:18:09;94599.09;;;1.69;58.86
15444;BME280;7822;48.146;11.576;2022-12-11T06:20:37;94593.06;;;1.70;58.56
15444;BME280;7822;48.146;11.576;2022-12-11T06:23:05;94598.34;;;1.67;58.51
15444;BME280;7822;48.146;11.576;2022-12-11T06:25:32;94600.66;;;1.71;59.84
15444;BME280;7822;48.146;11.576;2022-12-11T06:28:00;94602.38;;;1.71;60.06
15444;BME280;7822;48.146;11.576;2022-12-11T06:30:28;94603.56;;;1.65;60.57
15444;BME280;7822;48.146;11.576;2022-12-11T06:33:06;94602.53;;;1.68;59.80
15444;BME280;7822;48.146;11.576;2022-12-11T06:35:34;94604.94;;;1.71;60.71
15444;BME280;7822;48.146;11.576;2022-12-11T06:38:07;94600.25;;;1.63;60.46
15444;BME280;7822;48.146;11.576;2022-12-11T06:40:36;94602.56;;;1.52;62.44
15444;BME280;7822;48.146;11.576;2022-12-11T06:43:03;94601.75;;;1.67;61.29
15444;BME280;7822;48.146;11.576;2022-12-11T06:45:31;94606.03;;;1.51;62.06
15444;BME280;7822;48.146;11.576;2022-12-11T06:47:59;94599.22;;;1.36;62.88
15444;BME280;7822;48.146;11.576;2022-12-11T06:50:28;94606.44;;;1.43;63.12
15444;BME280;7822;48.146;11.576;2022-12-11T06:52:56;94602.00;;;1.47;63.30
15444;BME280;7822;48.146;11.576;2022-12-11T06:55:23;94609.09;;;1.42;64.18
15444;BME280;7822;48.146;11.576;2022-12-11T06:57:51;94605.31;;;1.33;64.46
15444;BME280;7822;48.146;11.576;2022-12-11T07:00:19;94600.72;;;1.24;65.21
15444;BME280;7822;48.146;11.576;2022-12-11T07:02:47;94601.34;;;1.28;64.92
15444;BME280;7822;48.146;11.576;2022-12-11T07:05:16;94603.16;;;1.41;65.35
15444;BME280;7822;48.146;11.576;2022-12-11T07:07:45;94604.19;;;1.23;65.05
15444;BME280;7822;48.146;11.576;2022-12-11T07:10:13;94611.16;;;1.20;65.82
15444;BME280;7822;48.146;11.576;2022-12-11T07:12:41;94608.38;;;1.24;66.07
15444;BME280;7822;48.146;11.576;2022-12-11T07:15:09;94605.72;;;1.26;65.42
15444;BME280;7822;48.146;11.576;2022-12-11T07:17:37;94614.22;;;1.26;65.31
15444;BME280;7822;48.146;11.576;2022-12-11T07:20:06;94614.22;;;1.26;65.85
15444;BME280;7822;48.146;11.576;2022-12-11T07:22:34;94617.69;;;1.25;65.64
15444;BME280;7822;48.146;11.576;2022-12-11T07:25:11;94626.41;;;1.37;65.76
15444;BME280;7822;48.146;11.576;2022-12-11T07:27:39;94623.19;;;1.33;65.55
15444;BME280;7822;48.146;11.576;2022-12-11T07:30:08;94627.09;;;1.25;66.04
15444;BME280;7822;48.146;11.576;2022-12-11T07:38:28;94628.38;;;1.01;66.59
15444;BME280;7822;48.146;11.576;2022-12-11T07:41:01;94638.75;;;0.98;66.63
15444;BME280;7822;48.146;11.576;2022-12-11T07:43:28;94623.09;;;1.04;66.52
15444;BME280;7822;48.146;11.576;2022-12-11T07:45:59;94633.31;;;0.88;66.43
15444;BME280;7822;48.146;11.576;2022-12-11T07:48:27;94624.66;;;0.91;66.83
15444;BME280;7822;48.146;11.576;2022-12-11T07:50:55;94625.91;;;0.84;66.99
15444;BME280;7822;48.146;11.576;2022-12-11T07:53:22;94629.69;;;0.92;66.97
15444;BME280;7822;48.146;11.576;2022-12-11T07:55:50;94629.13;;;1.03;67.24
15444;BME280;7822;48.146;11.576;2022-12-11T07:58:19;94632.34;;;1.06;66.37
15444;BME280;7822;48.146;11.576;2022-12-11T08:00:47;94627.47;;;1.02;66.42
15444;BME280;7822;48.146;11.576;2022-12-11T08:03:15;94633.41;;;1.02;67.18
15444;BME280;7822;48.146;11.576;2022-12-11T08:05:46;94639.25;;;1.04;67.28
15444;BME280;7822;48.146;11.576;2022-12-11T08:08:14;94632.78;;;1.14;67.04
15444;BME280;7822;48.146;11.576;2022-12-11T08:10:42;94640.75;;;1.24;66.82
15444;BME280;7822;48.146;11.576;2022-12-11T08:13:11;94635.88;;;1.19;66.54
15444;BME280;7822;48.146;11.576;2022-12-11T08:15:40;94626.84;;;1.29;65.78
15444;BME280;7822;48.146;11.576;2022-12-11T08:18:07;94638.44;;;1.35;66.10
15444;BME280;7822;48.146;11.576;2022-12-11T08:20:36;94628.22;;;1.35;66.30
15444;BME280;7822;48.146;11.576;2022-12-11T08:23:04;94628.16;;;1.36;66.13
15444;BME280;7822;48.146;11.576;2022-12-11T08:25:32;94624.25;;;1.61;65.35
15444;BME280;7822;48.146;11.576;2022-12-11T08:27:59;94626.56;;;1.65;64.95
15444;BME280;7822;48.146;11.576;2022-12-11T08:30:27;94627.22;;;1.69;65.05
15444;BME280;7822;48.146;11.576;2022-12-11T08:32:56;94627.72;;;1.60;65.75
15444;BME280;7822;48.146;11.576;2022-12-11T08:35:25;94644.84;;;1.73;65.78
15444;BME280;7822;48.146;11.576;2022-12-11T08:37:53;94639.56;;;1.76;65.28
15444;BME280;7822;48.146;11.576;2022-12-11T08:40:27;94648.66;;;1.66;64.87
15444;BME280;7822;48.146;11.576;2022-12-11T08:58:59;94658.06;;;1.19;65.00
15444;BME280;7822;48.146;11.576;2022-12-11T09:05:25;94654.44;;;1.23;65.82
15444;BME280;7822;48.146;11.576;2022-12-11T09:07:52;94646.34;;;1.30;65.12
15444;BME280;7822;48.146;11.576;2022-12-11T09:10:20;94656.88;;;1.09;65.13
15444;BME280;7822;48.146;11.576;2022-12-11T09:12:48;94657.38;;;1.15;64.92
15444;BME280;7822;48.146;11.576;2022-12-11T09:15:17;94653.75;;;1.19;65.07
15444;BME280;7822;48.146;11.576;2022-12-11T09:17:45;94647.84;;;1.19;64.61
15444;BME280;7822;48.146;11.576;2022-12-11T09:20:13;94646.84;;;1.21;65.32
15444;BME280;7822;48.146;11.576;2022-12-11T09:22:40;94653.44;;;1.25;64.48
15444;BME280;7822;48.146;11.576;2022-12-11T09:25:09;94650.66;;;1.14;64.38
15444;BME280;7822;48.146;11.576;2022-12-11T09:27:37;94643.78;;;1.15;64.90
15444;BME280;7822;48.146;11.576;2022-12-11T09:30:06;94647.06;;;1.17;64.53
15444;BME280;7822;48.146;11.576;2022-12-11T09:32:35;94654.25;;;1.10;63.96
15444;BME280;7822;48.146;11.576;2022-12-11T09:35:03;94646.63;;;0.77;64.77
15444;BME280;7822;48.146;11.576;2022-12-11T09:37:32;94645.22;;;0.72;65.47
15444;BME280;7822;48.146;11.576;2022-12-11T09:39:59;94642.75;;;0.70;65.01
15444;BME280;7822;48.146;11.576;2022-12-11T09:42:45;94646.31;;;0.84;65.59
15444;BME280;7822;48.146;11.576;2022-12-11T09:45:16;94642.47;;;1.08;64.77
15444;BME280;7822;48.146;11.576;2022-12-11T09:47:49;94636.13;;;1.15;64.37
15444;BME280;7822;48.146;11.576;2022-12-11T09:50:20;94642.41;;;1.09;64.48
15444;BME280;7822;48.146;11.576;2022-12-11T09:53:01;94635.06;;;1.19;63.80
15444;BME280;7822;48.146;11.576;2022-12-11T09:55:34;94637.13;;;1.28;64.06
15444;BME280;7822;48.146;11.576;2022-12-11T09:58:10;94632.25;;;1.39;64.34
15444;BME280;7822;48.146;11.576;2022-12-11T10:00:45;94628.47;;;1.46;63.45
15444;BME280;7822;48.146;11.576;2022-12-11T10:03:39;94625.31;;;1.57;63.10
15444;BME280;7822;48.146;11.576;2022-12-11T10:06:14;94621.78;;;1.59;61.84
15444;BME280;7822;48.146;11.576;2022-12-11T10:08:50;94628.88;;;1.54;62.04
15444;BME280;7822;48.146;11.576;2022-12-11T10:11:37;94619.00;;;1.32;63.15
15444;BME280;7822;48.146;11.576;2022-12-11T10:14:11;94624.44;;;1.26;62.90
15444;BME280;7822;48.146;11.576;2022-12-11T10:16:43;94622.88;;;1.24;62.96
15444;BME280;7822;48.146;11.576;2022-12-11T10:19:17;94610.03;;;1.25;63.70
15444;BME280;7822;48.146;11.576;2022-12-11T10:21:46;94610.34;;;1.19;62.50
15444;BME280;7822;48.146;11.576;2022-12-11T10:24:20;94608.22;;;0.96;62.51
15444;BME280;7822;48.146;11.576;2022-12-11T10:27:14;94607.03;;;0.86;62.78
15444;BME280;7822;48.146;11.576;2022-12-11T10:29:45;94611.13;;;0.73;63.60
15444;BME280;7822;48.146;11.576;2022-12-11T10:32:20;94598.38;;;0.73;63.39
15444;BME280;7822;48.146;11.576;2022-12-11T10:34:56;94603.22;;;0.77;63.55
15444;BME280;7822;48.146;11.576;2022-12-11T10:37:26;94604.72;;;0.82;64.06
15444;BME280;7822;48.146;11.576;2022-12-11T10:39:54;94599.88;;;0.93;63.72
15444;BME280;7822;48.146;11.576;2022-12-11T10:42:22;94595.84;;;0.89;63.58
15444;BME280;7822;48.146;11.576;2022-12-11T10:44:57;94599.81;;;0.94;64.28
15444;BME280;7822;48.146;11.576;2022-12-11T10:47:26;94588.63;;;0.97;64.02
15444;BME280;7822;48.146;11.576;2022-12-11T10:49:56;94589.41;;;0.97;64.72
15444;BME280;7822;48.146;11.576;2022-12-11T10:52:26;94598.41;;;1.04;64.21
15444;BME280;7822;48.146;11.576;2022-12-11T10:54:59;94587.59;;;0.99;63.32
15444;BME280;7822;48.146;11.576;2022-12-11T10:57:29;94584.91;;;1.02;64.56
15444;BME280;7822;48.146;11.576;2022-12-11T10:59:58;94580.53;;;1.04;63.19
15444;BME280;7822;48.146;11.576;2022-12-11T11:02:29;94577.31;;;1.01;63.72
15444;BME280;7822;48.146;11.576;2022-12-11T11:05:10;94578.66;;;0.92;63.25
15444;BME280;7822;48.146;11.576;2022-12-11T11:07:39;94574.09;;;0.97;64.18
15444;BME280;7822;48.146;11.576;2022-12-11T11:10:15;94568.84;;;1.16;62.97
15444;BME280;7822;48.146;11.576;2022-12-11T11:12:45;94568.59;;;1.20;63.93
15444;BME280;7822;48.146;11.576;2022-12-11T11:15:16;94562.31;;;1.26;62.00
15444;BME280;7822;48.146;11.576;2022-12-11T11:17:46;94555.41;;;1.12;61.79
15444;BME280;7822;48.146;11.576;2022-12-11T11:20:23;94565.34;;;1.17;61.40
15444;BME280;7822;48.146;11.576;2022-12-11T11:22:55;94553.13;;;1.08;61.64
15444;BME280;7822;48.146;11.576;2022-12-11T11:25:24;94552.59;;;1.17;61.89
15444;BME280;7822;48.146;11.576;2022-12-11T11:27:54;94542.31;;;1.18;62.70
15444;BME280;7822;48.146;11.576;2022-12-11T11:30:24;94542.22;;;1.20;63.24
15444;BME280;7822;48.146;11.576;2022-12-11T11:32:54;94546.75;;;1.15;63.32
15444;BME280;7822;48.146;11.576;2022-12-11T11:35:25;94538.78;;;1.21;63.44
15444;BME280;7822;48.146;11.576;2022-12-11T11:37:59;94532.09;;;1.18;63.56
15444;BME280;7822;48.146;11.576;2022-12-11T11:40:30;94525.41;;;1.31;63.15
15444;BME280;7822;48.146;11.576;2022-12-11T11:43:04;94520.25;;;1.47;62.32
15444;BME280;7822;48.146;11.576;2022-12-11T11:45:38;94519.91;;;1.53;61.26
15444;BME280;7822;48.146;11.576;2022-12-11T11:48:25;94520.31;;;1.45;62.26
15444;BME280;7822;48.146;11.576;2022-12-11T11:50:56;94524.25;;;1.67;61.29
15444;BME280;7822;48.146;11.576;2022-12-11T11:53:30;94529.16;;;1.40;61.45
15444;BME280;7822;48.146;11.576;2022-12-11T11:56:02;94526.38;;;1.29;62.24
15444;BME280;7822;48.146;11.576;2022-12-11T11:58:38;94522.63;;;1.20;63.58
15444;BME280;7822;48.146;11.576;2022-12-11T12:01:12;94518.59;;;1.16;63.72
15444;BME280;7822;48.146;11.576;2022-12-11T12:03:41;94524.56;;;1.31;62.12
15444;BME280;7822;48.146;11.576;2022-12-11T12:06:14;94515.75;;;1.36;61.52
15444;BME280;7822;48.146;11.576;2022-12-11T12:08:55;94510.88;;;1.47;61.51
15444;BME280;7822;48.146;11.576;2022-12-11T12:11:30;94511.03;;;1.44;61.56
15444;BME280;7822;48.146;11.576;2022-12-11T12:14:06;94511.19;;;1.41;61.20
15444;BME280;7822;48.146;11.576;2022-12-11T12:17:05;94505.59;;;1.35;60.57
15444;BME280;7822;48.146;11.576;2022-12-11T12:19:47;94512.56;;;1.02;60.83
15444;BME280;7822;48.146;11.576;2022-12-11T12:22:30;94507.22;;;0.91;60.03
15444;BME280;7822;48.146;11.576;2022-12-11T12:25:14;94509.03;;;0.89;61.14
15444;BME280;7822;48.146;11.576;2022-12-11T12:27:48;94505.59;;;1.05;61.20
15444;BME280;7822;48.146;11.576;2022-12-11T12:30:20;94519.19;;;1.06;61.16
15444;BME280;7822;48.146;11.576;2022-12-11T12:33:04;94517.53;;;1.05;60.30
15444;BME280;7822;48.146;11.576;2022-12-11T12:35:43;94514.97;;;1.05;60.39
15444;BME280;7822;48.146;11.576;2022-12-11T12:38:21;94507.53;;;1.16;60.63
15444;BME280;7822;48.146;11.576;2022-12-11T12:40:59;94515.38;;;0.97;59.39
15444;BME280;7822;48.146;11.576;2022-12-11T12:43:46;94516.31;;;0.96;60.39
15444;BME280;7822;48.146;11.576;2022-12-11T12:46:27;94509.63;;;0.94;60.27
15444;BME280;7822;48.146;11.576;2022-12-11T12:49:01;94496.94;;;1.08;59.91
15444;BME280;7822;48.146;11.576;2022-12-11T12:51:29;94502.47;;;1.00;58.36
15444;BME280;7822;48.146;11.576;2022-12-11T12:54:00;94510.81;;;0.88;59.07
15444;BME280;7822;48.146;11.576;2022-12-11T12:56:37;94501.81;;;0.97;59.80
15444;BME280;7822;48.146;11.576;2022-12-11T12:59:17;94502.38;;;1.02;59.62
15444;BME280;7822;48.146;11.576;2022-12-11T13:01:45;94506.19;;;0.95;59.63
15444;BME280;7822;48.146;11.576;2022-12-11T13:04:28;94508.31;;;0.87;59.30
15444;BME280;7822;48.146;11.576;2022-12-11T13:07:18;94498.69;;;0.92;59.91
15444;BME280;7822;48.146;11.576;2022-12-11T13:09:57;94499.06;;;1.00;59.78
15444;BME280;7822;48.146;11.576;2022-12-11T13:12:43;94508.16;;;0.90;60.02
15444;BME280;7822;48.146;11.576;2022-12-11T13:15:31;94509.63;;;0.78;60.71
15444;BME280;7822;48.146;11.576;2022-12-11T13:18:01;94520.91;;;0.74;60.34
15444;BME280;7822;48.146;11.576;2022-12-11T13:20:30;94502.31;;;0.56;61.01
15444;BME280;7822;48.146;11.576;2022-12-11T13:23:16;94508.56;;;0.66;61.27
15444;BME280;7822;48.146;11.576;2022-12-11T13:25:49;94503.22;;;0.71;60.81
15444;BME280;7822;48.146;11.576;2022-12-11T13:28:24;94511.53;;;0.74;61.60
15444;BME280;7822;48.146;11.576;2022-12-11T13:31:00;94510.22;;;0.67;61.39
15444;BME280;7822;48.146;11.576;2022-12-11T13:33:29;94510.78;;;0.57;62.08
15444;BME280;7822;48.146;11.576;2022-12-11T13:36:25;94511.03;;;0.52;62.18
15444;BME280;7822;48.146;11.576;2022-12-11T13:38:59;94508.75;;;0.63;61.93
15444;BME280;7822;48.146;11.576;2022-12-11T13:41:29;94514.56;;;0.65;61.65
15444;BME280;7822;48.146;11.576;2022-12-11T13:43:58;94510.13;;;0.85;61.39
15444;BME280;7822;48.146;11.576;2022-12-11T13:46:29;94506.59;;;0.87;61.95
15444;BME280;7822;48.146;11.576;2022-12-11T13:48:59;94506.97;;;0.95;60.64
15444;BME280;7822;48.146;11.576;2022-12-11T13:51:49;94500.97;;;0.96;60.08
15444;BME280;7822;48.146;11.576;2022-12-11T13:54:54;94504.91;;;1.02;60.22
15444;BME280;7822;48.146;11.576;2022-12-11T13:57:26;94505.34;;;1.10;60.16
15444;BME280;7822;48.146;11.576;2022-12-11T13:59:55;94508.31;;;0.87;59.15
15444;BME280;7822;48.146;11.576;2022-12-11T14:02:27;94515.72;;;0.75;59.53
15444;BME280;7822;48.146;11.576;2022-12-11T14:04:58;94513.41;;;0.87;60.53
15444;BME280;7822;48.146;11.576;2022-12-11T14:07:28;94509.13;;;0.87;59.87